Terminal Aerodrome Forecast
Issued by NWS Mobile, AL

Home | Current Version | Previous Version | Text Only | Print | Product List | Glossary On
Versions: 1 2 3 4 5 6 7 8 9 10 11 12 13 14 15 16 17 18 19 20
000
FTUS44 KMOB 211218 AAA
TAFPNS
TAF AMD
KPNS 211218Z 2112/2212 32012KT 4SM RA BR FEW009 BKN035 OVC045
     FM211600 16009KT 4SM SHRA BR OVC015
     FM212200 28009KT 5SM BR VCSH OVC007
     FM220600 33002KT 4SM BR OVC050=

USA.gov is the U.S. government's official web portal to all federal, state and local government web resources and services.